CheckWX is a tool to help pilots better visualize weather data.  It is not intended as a substitute for an official pre-flight weather briefing.

18:08:26 UTC

EGLF METAR
Farnborough Airport
Farnborough, United Kingdom
Current

18 mins ago

EGLF 171750Z 18008KT 9999 NSC 11/09 Q1003
Observed
Oct-17 @ 17:50 UTC
Wind
  • 180° at 8 KTS
Visibility
10,000+ meters
Flight Rules
VFR
Cloud Levels
  • Clear skies
Temperature
11°C / 52°F
Dewpoint
C / 48°F
Humidity
88%
Altimeter
29.62" Hg
Pressure
1002.92 hPa
Previous

48 mins ago

EGLF 171720Z 18007KT 9999 FEW026 11/09 Q1003
Observed
Oct-17 @ 17:20 UTC
Wind
  • 180° at 7 KTS
Visibility
10,000+ meters
Flight Rules
VFR
Cloud Levels
  • Few at 2,600' AGL
Temperature
11°C / 52°F
Dewpoint
C / 48°F
Humidity
88%
Altimeter
29.62" Hg
Pressure
1002.92 hPa
Previous

1 hour ago

EGLF 171650Z 19008KT 9999 FEW026 12/09 Q1004
Observed
Oct-17 @ 16:50 UTC
Wind
  • 190° at 8 KTS
Visibility
10,000+ meters
Flight Rules
VFR
Cloud Levels
  • Few at 2,600' AGL
Temperature
12°C / 54°F
Dewpoint
C / 48°F
Humidity
82%
Altimeter
29.65" Hg
Pressure
1003.92 hPa